createdAt,value
2022-12-01T00:00:26.128Z,19.73
2022-12-01T00:05:29.537Z,22.83
2022-12-01T00:10:34.559Z,22.73
2022-12-01T00:15:39.500Z,24.30
2022-12-01T00:20:42.903Z,23.17
2022-12-01T00:25:46.304Z,21.20
2022-12-01T00:30:51.231Z,24.00
2022-12-01T00:36:00.191Z,21.20
2022-12-01T00:41:04.536Z,19.77
2022-12-01T00:46:09.421Z,22.70
2022-12-01T00:51:12.965Z,22.67
2022-12-01T00:56:16.735Z,20.83
2022-12-01T01:01:21.608Z,20.73
2022-12-01T01:06:25.333Z,21.33
2022-12-01T01:11:29.039Z,20.77
2022-12-01T01:16:34.345Z,15.03
2022-12-01T01:21:38.181Z,18.63
2022-12-01T01:26:41.847Z,14.93
2022-12-01T01:31:46.943Z,15.63
2022-12-01T01:36:50.509Z,16.33
2022-12-01T01:41:54.310Z,14.43
2022-12-01T01:46:59.983Z,13.83
2022-12-01T01:52:05.086Z,13.47
2022-12-01T01:57:10.986Z,13.73
2022-12-01T02:02:16.677Z,13.67
2022-12-01T02:07:21.037Z,12.77
2022-12-01T02:12:52.308Z,11.77
2022-12-01T02:18:29.156Z,11.47
2022-12-01T02:24:01.736Z,11.30
2022-12-01T02:29:39.367Z,11.23
2022-12-01T02:34:48.827Z,9.40
2022-12-01T02:39:59.251Z,9.67
2022-12-01T02:45:06.314Z,9.47
2022-12-01T02:50:13.947Z,9.40
2022-12-01T02:55:17.378Z,9.03
2022-12-01T03:00:20.998Z,11.00
2022-12-01T03:05:33.482Z,10.33
2022-12-01T03:10:46.978Z,8.20
2022-12-01T03:15:59.749Z,8.77
2022-12-01T03:21:11.042Z,8.13
2022-12-01T03:26:18.905Z,7.30
2022-12-01T03:31:28.573Z,7.93
2022-12-01T03:36:38.131Z,8.70
2022-12-01T03:41:47.843Z,7.47
2022-12-01T03:46:55.218Z,8.70
2022-12-01T03:52:10.779Z,7.40
2022-12-01T03:57:19.431Z,6.90
2022-12-01T04:02:27.770Z,6.60
2022-12-01T04:07:32.892Z,6.00
2022-12-01T04:12:36.686Z,7.70
2022-12-01T04:17:40.391Z,5.73
2022-12-01T04:22:45.514Z,6.53
2022-12-01T04:27:49.004Z,5.97
2022-12-01T04:32:52.440Z,6.27
2022-12-01T04:37:57.319Z,6.43
2022-12-01T04:43:00.692Z,6.10
2022-12-01T04:48:04.557Z,6.07
2022-12-01T04:53:09.360Z,5.33
2022-12-01T04:58:12.766Z,6.17
2022-12-01T05:03:16.258Z,8.70
2022-12-01T05:08:20.966Z,4.93
2022-12-01T05:13:24.674Z,5.57
2022-12-01T05:18:28.098Z,5.97
2022-12-01T05:23:35.030Z,6.87
2022-12-01T05:28:41.213Z,9.13
2022-12-01T05:33:44.602Z,6.00
2022-12-01T05:38:49.419Z,6.93
2022-12-01T05:43:52.969Z,5.60
2022-12-01T05:48:56.402Z,8.13
2022-12-01T05:54:02.319Z,8.10
2022-12-01T05:59:05.770Z,6.77
2022-12-01T06:04:09.484Z,5.03
2022-12-01T06:09:14.615Z,6.83
2022-12-01T06:14:18.217Z,6.23
2022-12-01T06:19:21.782Z,5.40
2022-12-01T06:24:26.948Z,6.63
2022-12-01T06:29:30.286Z,5.87
2022-12-01T06:34:33.674Z,8.37
2022-12-01T06:39:38.496Z,7.47
2022-12-01T06:44:41.878Z,7.00
2022-12-01T06:49:45.633Z,5.67
2022-12-01T06:54:50.413Z,8.27
2022-12-01T06:59:54.153Z,6.37
2022-12-01T07:04:57.849Z,6.83
2022-12-01T07:10:02.689Z,6.90
2022-12-01T07:15:09.536Z,7.27
2022-12-01T07:20:14.132Z,5.87
2022-12-01T07:25:18.953Z,5.90
2022-12-01T07:30:28.066Z,5.80
2022-12-01T07:35:31.873Z,6.07
2022-12-01T07:40:36.610Z,6.63
2022-12-01T07:45:40.019Z,7.07
2022-12-01T07:50:43.545Z,6.40
2022-12-01T07:55:51.523Z,7.27
2022-12-01T08:00:55.166Z,7.73
2022-12-01T08:05:58.826Z,7.23
2022-12-01T08:11:05.323Z,6.60
2022-12-01T08:16:10.639Z,8.60
2022-12-01T08:21:15.715Z,10.20
2022-12-01T08:26:21.454Z,8.83
2022-12-01T08:31:26.470Z,8.80
2022-12-01T08:36:29.910Z,10.10
2022-12-01T08:41:34.667Z,11.83
2022-12-01T08:46:38.932Z,12.70
2022-12-01T08:51:42.444Z,13.73
2022-12-01T08:56:47.250Z,14.53
2022-12-01T09:01:57.460Z,14.53
2022-12-01T09:07:01.089Z,15.33
2022-12-01T09:12:07.661Z,16.33
2022-12-01T09:17:11.265Z,17.17
2022-12-01T09:22:14.669Z,17.07
2022-12-01T09:27:19.484Z,18.93
2022-12-01T09:32:22.877Z,16.10
2022-12-01T09:37:26.330Z,16.13
2022-12-01T09:42:35.386Z,16.10
2022-12-01T09:47:40.177Z,13.90
2022-12-01T09:52:47.134Z,15.67
2022-12-01T09:57:53.888Z,16.77
2022-12-01T10:03:02.168Z,14.57
2022-12-01T10:08:09.263Z,19.63
2022-12-01T10:13:19.318Z,19.33
2022-12-01T10:18:36.663Z,14.17
2022-12-01T10:23:54.172Z,17.53
2022-12-01T10:29:13.140Z,18.23
2022-12-01T10:34:18.766Z,15.07
2022-12-01T10:39:27.942Z,20.23
2022-12-01T10:44:33.119Z,14.67
2022-12-01T10:49:38.981Z,15.73
2022-12-01T10:54:43.098Z,15.50
2022-12-01T10:59:52.701Z,18.20
2022-12-01T11:04:59.845Z,14.33
2022-12-01T11:10:16.866Z,17.97
2022-12-01T11:15:25.561Z,18.17
2022-12-01T11:20:33.530Z,16.37
2022-12-01T11:25:37.654Z,15.50
2022-12-01T11:30:42.478Z,17.07
2022-12-01T11:35:50.308Z,19.10
2022-12-01T11:40:56.090Z,16.27
2022-12-01T11:46:03.983Z,20.20
2022-12-01T11:51:12.152Z,17.37
2022-12-01T11:56:23.445Z,17.37
2022-12-01T12:01:40.379Z,16.83
2022-12-01T12:06:49.226Z,20.60
2022-12-01T12:12:01.868Z,13.47
2022-12-01T12:17:30.604Z,15.97
2022-12-01T12:22:46.904Z,17.50
2022-12-01T12:28:05.447Z,14.23
2022-12-01T12:33:41.199Z,12.77
2022-12-01T12:39:02.652Z,8.97
2022-12-01T12:44:20.855Z,8.30
2022-12-01T12:49:37.636Z,10.07
2022-12-01T12:54:49.522Z,10.50
2022-12-01T12:59:58.424Z,7.37
2022-12-01T13:05:09.163Z,8.23
2022-12-01T13:10:24.893Z,9.53
2022-12-01T13:15:30.291Z,5.40
2022-12-01T13:20:37.917Z,6.53
2022-12-01T13:25:44.516Z,7.97
2022-12-01T13:31:01.045Z,8.07
2022-12-01T13:41:38.990Z,5.03
2022-12-01T13:46:54.180Z,5.80
2022-12-01T13:52:28.499Z,6.03
2022-12-01T13:57:35.127Z,4.33
2022-12-01T14:02:38.652Z,5.13
2022-12-01T14:07:42.419Z,3.33
2022-12-01T14:12:48.059Z,4.23
2022-12-01T14:18:01.256Z,3.33
2022-12-01T14:23:14.770Z,4.27
2022-12-01T14:28:58.814Z,3.03
2022-12-01T14:34:05.278Z,5.33
2022-12-01T14:39:16.120Z,5.40
2022-12-01T14:44:26.850Z,5.47
2022-12-01T14:49:39.590Z,4.97
2022-12-01T14:54:47.119Z,5.73
2022-12-01T15:00:03.980Z,3.77
2022-12-01T15:05:12.850Z,7.13
2022-12-01T15:10:19.011Z,5.83
2022-12-01T15:15:25.477Z,4.67
2022-12-01T15:20:33.235Z,5.37
2022-12-01T15:25:37.244Z,5.20
2022-12-01T15:30:42.125Z,5.73
2022-12-01T15:35:49.838Z,5.83
2022-12-01T15:46:20.541Z,7.07
2022-12-01T15:51:28.764Z,6.63
2022-12-01T15:56:34.562Z,8.60
2022-12-01T16:01:38.732Z,8.87
2022-12-01T16:06:44.055Z,6.87
2022-12-01T16:12:05.987Z,7.53
2022-12-01T16:17:11.614Z,8.37
2022-12-01T16:22:22.479Z,5.73
2022-12-01T16:27:28.740Z,7.07
2022-12-01T16:32:38.125Z,5.67
2022-12-01T16:37:45.041Z,5.13
2022-12-01T16:42:49.928Z,11.17
2022-12-01T16:47:53.617Z,8.77
2022-12-01T16:52:58.633Z,7.17
2022-12-01T16:58:02.363Z,10.83
2022-12-01T17:03:07.041Z,12.83
2022-12-01T17:08:12.289Z,21.07
2022-12-01T17:13:15.735Z,13.43
2022-12-01T17:18:20.907Z,9.17
2022-12-01T17:23:25.763Z,15.23
2022-12-01T17:28:29.321Z,9.13
2022-12-01T17:33:33.314Z,16.33
2022-12-01T17:38:39.469Z,15.93
2022-12-01T17:43:43.517Z,24.43
2022-12-01T17:48:48.063Z,22.97
2022-12-01T17:53:54.369Z,9.40
2022-12-01T17:58:57.833Z,13.67
2022-12-01T18:04:01.365Z,24.10
2022-12-01T18:09:06.287Z,22.10
2022-12-01T18:14:09.679Z,12.10
2022-12-01T18:19:13.537Z,35.73
2022-12-01T18:24:18.420Z,19.53
2022-12-01T18:29:26.248Z,35.70
2022-12-01T18:34:30.581Z,6.67
2022-12-01T18:39:35.650Z,10.70
2022-12-01T18:44:39.332Z,15.77
2022-12-01T18:49:42.765Z,29.70
2022-12-01T18:54:47.880Z,22.27
2022-12-01T18:59:51.995Z,23.73
2022-12-01T19:04:55.751Z,18.10
2022-12-01T19:10:00.898Z,28.63
2022-12-01T19:15:05.739Z,13.07
2022-12-01T19:20:10.630Z,25.23
2022-12-01T19:25:15.886Z,15.87
2022-12-01T19:30:19.902Z,14.00
2022-12-01T19:35:23.776Z,23.00
2022-12-01T19:40:29.083Z,26.73
2022-12-01T19:45:33.874Z,13.13
2022-12-01T19:50:38.100Z,21.30
2022-12-01T19:55:43.035Z,8.53
2022-12-01T20:00:46.965Z,10.40
2022-12-01T20:05:50.475Z,13.77
2022-12-01T20:10:55.614Z,19.47
2022-12-01T20:16:03.348Z,13.30
2022-12-01T20:21:09.171Z,19.53
2022-12-01T20:26:15.691Z,16.83
2022-12-01T20:31:22.385Z,13.73
2022-12-01T20:36:26.400Z,20.40
2022-12-01T20:41:33.318Z,12.77
2022-12-01T20:46:41.047Z,10.07
2022-12-01T20:51:45.302Z,17.87
2022-12-01T20:56:50.551Z,17.53
2022-12-01T21:01:54.094Z,11.13
2022-12-01T21:06:58.170Z,11.87
2022-12-01T21:12:21.742Z,19.30
2022-12-01T21:17:34.319Z,10.97
2022-12-01T21:22:37.914Z,10.13
2022-12-01T21:27:42.876Z,11.90
2022-12-01T21:32:47.534Z,10.40
2022-12-01T21:37:52.745Z,7.97
2022-12-01T21:43:01.408Z,8.90
2022-12-01T21:48:15.384Z,11.37
2022-12-01T21:53:21.162Z,10.03
2022-12-01T21:58:29.170Z,11.77
2022-12-01T22:03:34.732Z,10.10
2022-12-01T22:08:41.354Z,10.70
2022-12-01T22:13:48.354Z,10.87
2022-12-01T22:18:53.596Z,11.30
2022-12-01T22:24:03.997Z,10.53
2022-12-01T22:29:26.504Z,9.70
2022-12-01T22:34:29.907Z,11.27
2022-12-01T22:39:34.558Z,11.37
2022-12-01T22:44:39.278Z,15.20
2022-12-01T22:49:43.952Z,14.07
2022-12-01T22:54:50.343Z,16.83
2022-12-01T22:59:56.310Z,11.20
2022-12-01T23:05:01.334Z,16.13
2022-12-01T23:10:13.254Z,14.93
2022-12-01T23:15:24.778Z,14.40
2022-12-01T23:20:34.542Z,16.23
2022-12-01T23:25:37.956Z,11.90
2022-12-01T23:30:44.192Z,11.80
2022-12-01T23:35:52.176Z,9.97
2022-12-01T23:41:00.233Z,11.73
2022-12-01T23:46:09.888Z,12.03
2022-12-01T23:51:19.662Z,10.67
2022-12-01T23:56:25.846Z,11.37
